sensor_id;sensor_type;location;lat;lon;timestamp;P1;durP1;ratioP1;P2;durP2;ratioP2
71777;SDS011;59609;52.430;4.668;2022-12-18T00:01:37;68.55;;;19.23;;
71777;SDS011;59609;52.430;4.668;2022-12-18T00:04:04;50.95;;;17.38;;
71777;SDS011;59609;52.430;4.668;2022-12-18T00:06:30;46.75;;;16.02;;
71777;SDS011;59609;52.430;4.668;2022-12-18T00:08:58;74.35;;;18.40;;
71777;SDS011;59609;52.430;4.668;2022-12-18T00:11:26;46.03;;;16.42;;
71777;SDS011;59609;52.430;4.668;2022-12-18T00:13:54;73.15;;;19.30;;
71777;SDS011;59609;52.430;4.668;2022-12-18T00:16:22;63.42;;;18.67;;
71777;SDS011;59609;52.430;4.668;2022-12-18T00:18:50;55.33;;;20.02;;
71777;SDS011;59609;52.430;4.668;2022-12-18T00:21:18;61.17;;;21.75;;
71777;SDS011;59609;52.430;4.668;2022-12-18T00:23:45;51.13;;;15.98;;
71777;SDS011;59609;52.430;4.668;2022-12-18T00:26:12;65.53;;;18.02;;
71777;SDS011;59609;52.430;4.668;2022-12-18T00:31:07;35.92;;;11.75;;
71777;SDS011;59609;52.430;4.668;2022-12-18T00:33:34;59.50;;;18.27;;
71777;SDS011;59609;52.430;4.668;2022-12-18T00:36:01;61.17;;;16.50;;
71777;SDS011;59609;52.430;4.668;2022-12-18T00:38:30;59.17;;;15.98;;
71777;SDS011;59609;52.430;4.668;2022-12-18T00:40:56;58.15;;;16.27;;
71777;SDS011;59609;52.430;4.668;2022-12-18T00:43:21;61.72;;;18.00;;
71777;SDS011;59609;52.430;4.668;2022-12-18T00:45:46;60.13;;;17.42;;
71777;SDS011;59609;52.430;4.668;2022-12-18T00:48:12;67.43;;;17.77;;
71777;SDS011;59609;52.430;4.668;2022-12-18T00:50:37;62.38;;;18.63;;
71777;SDS011;59609;52.430;4.668;2022-12-18T00:53:03;80.25;;;18.02;;
71777;SDS011;59609;52.430;4.668;2022-12-18T00:55:28;69.20;;;17.55;;
71777;SDS011;59609;52.430;4.668;2022-12-18T00:57:54;65.63;;;18.52;;
71777;SDS011;59609;52.430;4.668;2022-12-18T01:00:19;47.72;;;13.65;;
71777;SDS011;59609;52.430;4.668;2022-12-18T01:02:45;62.97;;;17.13;;
71777;SDS011;59609;52.430;4.668;2022-12-18T01:05:11;56.17;;;17.48;;
71777;SDS011;59609;52.430;4.668;2022-12-18T01:07:37;71.80;;;17.13;;
71777;SDS011;59609;52.430;4.668;2022-12-18T01:10:04;62.58;;;17.83;;
71777;SDS011;59609;52.430;4.668;2022-12-18T01:12:30;62.30;;;17.35;;
71777;SDS011;59609;52.430;4.668;2022-12-18T01:14:56;78.50;;;19.17;;
71777;SDS011;59609;52.430;4.668;2022-12-18T01:17:22;58.90;;;17.50;;
71777;SDS011;59609;52.430;4.668;2022-12-18T01:19:47;60.38;;;17.75;;
71777;SDS011;59609;52.430;4.668;2022-12-18T01:22:12;50.50;;;16.63;;
71777;SDS011;59609;52.430;4.668;2022-12-18T01:24:38;72.30;;;18.60;;
71777;SDS011;59609;52.430;4.668;2022-12-18T01:27:03;62.20;;;17.27;;
71777;SDS011;59609;52.430;4.668;2022-12-18T01:29:28;59.95;;;16.98;;
71777;SDS011;59609;52.430;4.668;2022-12-18T01:31:54;47.25;;;12.75;;
71777;SDS011;59609;52.430;4.668;2022-12-18T01:34:20;43.78;;;14.60;;
71777;SDS011;59609;52.430;4.668;2022-12-18T01:36:46;71.10;;;19.65;;
71777;SDS011;59609;52.430;4.668;2022-12-18T01:39:12;79.32;;;17.35;;
71777;SDS011;59609;52.430;4.668;2022-12-18T01:41:38;38.83;;;11.73;;
71777;SDS011;59609;52.430;4.668;2022-12-18T01:50:16;61.72;;;16.23;;
71777;SDS011;59609;52.430;4.668;2022-12-18T01:53:07;51.67;;;15.07;;
71777;SDS011;59609;52.430;4.668;2022-12-18T01:55:37;46.95;;;15.35;;
71777;SDS011;59609;52.430;4.668;2022-12-18T01:58:07;58.10;;;16.70;;
71777;SDS011;59609;52.430;4.668;2022-12-18T02:00:33;44.83;;;13.75;;
71777;SDS011;59609;52.430;4.668;2022-12-18T02:02:59;47.03;;;13.73;;
71777;SDS011;59609;52.430;4.668;2022-12-18T02:08:26;37.88;;;15.38;;
71777;SDS011;59609;52.430;4.668;2022-12-18T02:11:07;51.97;;;15.85;;
71777;SDS011;59609;52.430;4.668;2022-12-18T02:19:15;71.32;;;16.55;;
71777;SDS011;59609;52.430;4.668;2022-12-18T02:26:50;53.75;;;16.10;;
71777;SDS011;59609;52.430;4.668;2022-12-18T02:29:23;44.63;;;12.77;;
71777;SDS011;59609;52.430;4.668;2022-12-18T02:31:53;88.30;;;21.15;;
71777;SDS011;59609;52.430;4.668;2022-12-18T02:34:22;63.08;;;18.70;;
71777;SDS011;59609;52.430;4.668;2022-12-18T02:36:54;84.47;;;19.02;;
71777;SDS011;59609;52.430;4.668;2022-12-18T02:39:21;76.80;;;16.05;;
71777;SDS011;59609;52.430;4.668;2022-12-18T02:41:48;32.63;;;10.55;;
71777;SDS011;59609;52.430;4.668;2022-12-18T02:44:15;52.75;;;15.63;;
71777;SDS011;59609;52.430;4.668;2022-12-18T02:46:41;38.25;;;13.65;;
71777;SDS011;59609;52.430;4.668;2022-12-18T02:49:12;43.50;;;13.98;;
71777;SDS011;59609;52.430;4.668;2022-12-18T02:57:50;27.63;;;9.93;;
71777;SDS011;59609;52.430;4.668;2022-12-18T03:00:35;29.20;;;11.25;;
71777;SDS011;59609;52.430;4.668;2022-12-18T03:03:07;27.85;;;9.88;;
71777;SDS011;59609;52.430;4.668;2022-12-18T03:08:24;86.35;;;15.50;;
71777;SDS011;59609;52.430;4.668;2022-12-18T03:11:02;43.55;;;14.50;;
71777;SDS011;59609;52.430;4.668;2022-12-18T03:13:37;42.33;;;12.85;;
71777;SDS011;59609;52.430;4.668;2022-12-18T03:16:05;55.78;;;15.43;;
71777;SDS011;59609;52.430;4.668;2022-12-18T03:21:13;59.67;;;15.85;;
71777;SDS011;59609;52.430;4.668;2022-12-18T03:23:44;76.13;;;18.45;;
71777;SDS011;59609;52.430;4.668;2022-12-18T03:26:16;71.55;;;17.05;;
71777;SDS011;59609;52.430;4.668;2022-12-18T03:29:19;77.43;;;18.77;;
71777;SDS011;59609;52.430;4.668;2022-12-18T03:31:42;70.80;;;16.80;;
71777;SDS011;59609;52.430;4.668;2022-12-18T03:34:26;36.70;;;11.25;;
71777;SDS011;59609;52.430;4.668;2022-12-18T03:36:56;52.05;;;14.00;;
71777;SDS011;59609;52.430;4.668;2022-12-18T03:39:22;41.58;;;11.95;;
71777;SDS011;59609;52.430;4.668;2022-12-18T03:41:51;52.03;;;17.25;;
71777;SDS011;59609;52.430;4.668;2022-12-18T03:44:30;44.53;;;14.40;;
71777;SDS011;59609;52.430;4.668;2022-12-18T03:47:13;63.00;;;13.73;;
71777;SDS011;59609;52.430;4.668;2022-12-18T03:49:56;53.78;;;14.88;;
71777;SDS011;59609;52.430;4.668;2022-12-18T03:52:38;48.92;;;13.75;;
71777;SDS011;59609;52.430;4.668;2022-12-18T03:55:08;60.03;;;16.00;;
71777;SDS011;59609;52.430;4.668;2022-12-18T03:57:36;60.75;;;13.63;;
71777;SDS011;59609;52.430;4.668;2022-12-18T04:00:08;38.22;;;11.95;;
71777;SDS011;59609;52.430;4.668;2022-12-18T04:02:37;24.85;;;10.65;;
71777;SDS011;59609;52.430;4.668;2022-12-18T04:05:05;15.30;;;7.22;;
71777;SDS011;59609;52.430;4.668;2022-12-18T04:07:33;46.72;;;14.05;;
71777;SDS011;59609;52.430;4.668;2022-12-18T04:09:59;24.77;;;10.75;;
71777;SDS011;59609;52.430;4.668;2022-12-18T04:12:26;42.03;;;13.60;;
71777;SDS011;59609;52.430;4.668;2022-12-18T04:14:53;48.67;;;15.40;;
71777;SDS011;59609;52.430;4.668;2022-12-18T04:17:19;42.80;;;13.73;;
71777;SDS011;59609;52.430;4.668;2022-12-18T04:19:45;53.33;;;15.10;;
71777;SDS011;59609;52.430;4.668;2022-12-18T04:22:10;31.48;;;10.70;;
71777;SDS011;59609;52.430;4.668;2022-12-18T04:24:36;33.80;;;12.05;;
71777;SDS011;59609;52.430;4.668;2022-12-18T04:27:01;28.95;;;9.93;;
71777;SDS011;59609;52.430;4.668;2022-12-18T04:29:27;30.95;;;10.68;;
71777;SDS011;59609;52.430;4.668;2022-12-18T04:31:53;27.45;;;10.00;;
71777;SDS011;59609;52.430;4.668;2022-12-18T04:34:19;35.67;;;11.68;;
71777;SDS011;59609;52.430;4.668;2022-12-18T04:36:44;41.67;;;11.80;;
71777;SDS011;59609;52.430;4.668;2022-12-18T04:39:10;46.47;;;15.43;;
71777;SDS011;59609;52.430;4.668;2022-12-18T04:41:35;45.20;;;14.35;;
71777;SDS011;59609;52.430;4.668;2022-12-18T04:44:01;40.75;;;14.40;;
71777;SDS011;59609;52.430;4.668;2022-12-18T04:46:26;35.70;;;10.48;;
71777;SDS011;59609;52.430;4.668;2022-12-18T04:48:52;43.83;;;14.90;;
71777;SDS011;59609;52.430;4.668;2022-12-18T04:51:17;23.75;;;10.55;;
71777;SDS011;59609;52.430;4.668;2022-12-18T04:53:42;57.03;;;15.88;;
71777;SDS011;59609;52.430;4.668;2022-12-18T04:56:11;47.28;;;14.77;;
71777;SDS011;59609;52.430;4.668;2022-12-18T04:58:39;40.47;;;12.50;;
71777;SDS011;59609;52.430;4.668;2022-12-18T05:01:06;47.55;;;14.02;;
71777;SDS011;59609;52.430;4.668;2022-12-18T05:03:35;47.67;;;14.93;;
71777;SDS011;59609;52.430;4.668;2022-12-18T05:06:01;44.80;;;14.75;;
71777;SDS011;59609;52.430;4.668;2022-12-18T05:08:26;47.03;;;14.77;;
71777;SDS011;59609;52.430;4.668;2022-12-18T05:10:58;41.63;;;14.27;;
71777;SDS011;59609;52.430;4.668;2022-12-18T05:13:25;45.97;;;14.75;;
71777;SDS011;59609;52.430;4.668;2022-12-18T05:15:51;39.15;;;14.30;;
71777;SDS011;59609;52.430;4.668;2022-12-18T05:18:17;42.65;;;12.80;;
71777;SDS011;59609;52.430;4.668;2022-12-18T05:20:43;49.53;;;16.73;;
71777;SDS011;59609;52.430;4.668;2022-12-18T05:23:08;52.10;;;14.68;;
71777;SDS011;59609;52.430;4.668;2022-12-18T05:25:33;54.85;;;16.48;;
71777;SDS011;59609;52.430;4.668;2022-12-18T05:27:59;38.25;;;15.10;;
71777;SDS011;59609;52.430;4.668;2022-12-18T05:30:24;46.90;;;15.88;;
71777;SDS011;59609;52.430;4.668;2022-12-18T05:32:49;52.13;;;15.68;;
71777;SDS011;59609;52.430;4.668;2022-12-18T05:35:15;53.58;;;16.17;;
71777;SDS011;59609;52.430;4.668;2022-12-18T05:37:40;43.00;;;12.85;;
71777;SDS011;59609;52.430;4.668;2022-12-18T05:40:06;45.20;;;15.23;;
71777;SDS011;59609;52.430;4.668;2022-12-18T05:42:32;43.55;;;15.35;;
71777;SDS011;59609;52.430;4.668;2022-12-18T05:44:57;55.80;;;16.35;;
71777;SDS011;59609;52.430;4.668;2022-12-18T05:47:22;39.65;;;12.75;;
71777;SDS011;59609;52.430;4.668;2022-12-18T05:49:48;54.97;;;15.55;;
71777;SDS011;59609;52.430;4.668;2022-12-18T05:52:13;51.10;;;14.48;;
71777;SDS011;59609;52.430;4.668;2022-12-18T05:54:38;57.28;;;17.25;;
71777;SDS011;59609;52.430;4.668;2022-12-18T05:57:04;48.08;;;14.40;;
71777;SDS011;59609;52.430;4.668;2022-12-18T05:59:30;45.17;;;13.20;;
71777;SDS011;59609;52.430;4.668;2022-12-18T06:01:55;47.20;;;14.00;;
71777;SDS011;59609;52.430;4.668;2022-12-18T06:04:20;47.40;;;14.55;;
71777;SDS011;59609;52.430;4.668;2022-12-18T06:06:46;64.57;;;16.45;;
71777;SDS011;59609;52.430;4.668;2022-12-18T06:09:11;55.38;;;15.18;;
71777;SDS011;59609;52.430;4.668;2022-12-18T06:11:37;50.42;;;14.55;;
71777;SDS011;59609;52.430;4.668;2022-12-18T06:14:03;46.05;;;14.07;;
71777;SDS011;59609;52.430;4.668;2022-12-18T06:16:29;48.67;;;14.25;;
71777;SDS011;59609;52.430;4.668;2022-12-18T06:18:56;46.10;;;15.70;;
71777;SDS011;59609;52.430;4.668;2022-12-18T06:21:22;46.10;;;16.48;;
71777;SDS011;59609;52.430;4.668;2022-12-18T06:23:48;48.20;;;15.10;;
71777;SDS011;59609;52.430;4.668;2022-12-18T06:26:13;49.72;;;15.07;;
71777;SDS011;59609;52.430;4.668;2022-12-18T06:28:39;50.47;;;16.25;;
71777;SDS011;59609;52.430;4.668;2022-12-18T06:31:05;46.10;;;13.60;;
71777;SDS011;59609;52.430;4.668;2022-12-18T06:33:31;40.85;;;12.25;;
71777;SDS011;59609;52.430;4.668;2022-12-18T06:36:00;49.45;;;15.23;;
71777;SDS011;59609;52.430;4.668;2022-12-18T06:38:27;48.45;;;14.77;;
71777;SDS011;59609;52.430;4.668;2022-12-18T06:40:52;57.00;;;17.02;;
71777;SDS011;59609;52.430;4.668;2022-12-18T06:43:18;44.05;;;13.63;;
71777;SDS011;59609;52.430;4.668;2022-12-18T06:45:43;42.15;;;13.30;;
71777;SDS011;59609;52.430;4.668;2022-12-18T06:48:08;38.38;;;14.32;;
71777;SDS011;59609;52.430;4.668;2022-12-18T06:50:33;48.08;;;13.73;;
71777;SDS011;59609;52.430;4.668;2022-12-18T06:52:59;48.28;;;15.10;;
71777;SDS011;59609;52.430;4.668;2022-12-18T06:55:24;47.75;;;15.88;;
71777;SDS011;59609;52.430;4.668;2022-12-18T06:57:50;46.00;;;15.05;;
71777;SDS011;59609;52.430;4.668;2022-12-18T07:00:15;45.78;;;13.43;;
71777;SDS011;59609;52.430;4.668;2022-12-18T07:02:41;46.70;;;13.88;;
71777;SDS011;59609;52.430;4.668;2022-12-18T07:05:06;53.65;;;16.23;;
71777;SDS011;59609;52.430;4.668;2022-12-18T07:07:33;50.60;;;15.07;;
71777;SDS011;59609;52.430;4.668;2022-12-18T07:09:59;46.05;;;14.32;;
71777;SDS011;59609;52.430;4.668;2022-12-18T07:12:26;56.08;;;16.48;;
71777;SDS011;59609;52.430;4.668;2022-12-18T07:14:52;43.95;;;13.35;;
71777;SDS011;59609;52.430;4.668;2022-12-18T07:17:17;44.22;;;13.48;;
71777;SDS011;59609;52.430;4.668;2022-12-18T07:19:42;37.67;;;13.25;;
71777;SDS011;59609;52.430;4.668;2022-12-18T07:22:08;44.95;;;14.77;;
71777;SDS011;59609;52.430;4.668;2022-12-18T07:24:33;43.67;;;14.88;;
71777;SDS011;59609;52.430;4.668;2022-12-18T07:26:59;43.25;;;14.57;;
71777;SDS011;59609;52.430;4.668;2022-12-18T07:29:24;51.45;;;15.73;;
71777;SDS011;59609;52.430;4.668;2022-12-18T07:31:50;43.75;;;13.90;;
71777;SDS011;59609;52.430;4.668;2022-12-18T07:34:17;38.85;;;14.07;;
71777;SDS011;59609;52.430;4.668;2022-12-18T07:36:42;40.40;;;14.40;;
71777;SDS011;59609;52.430;4.668;2022-12-18T07:39:08;38.00;;;13.45;;
71777;SDS011;59609;52.430;4.668;2022-12-18T07:41:33;43.83;;;14.80;;
71777;SDS011;59609;52.430;4.668;2022-12-18T07:43:59;21.05;;;9.45;;
71777;SDS011;59609;52.430;4.668;2022-12-18T07:46:24;45.97;;;15.13;;
71777;SDS011;59609;52.430;4.668;2022-12-18T07:48:49;40.65;;;12.85;;
71777;SDS011;59609;52.430;4.668;2022-12-18T07:51:15;36.92;;;13.57;;
71777;SDS011;59609;52.430;4.668;2022-12-18T07:53:40;36.13;;;14.18;;
71777;SDS011;59609;52.430;4.668;2022-12-18T07:56:07;37.08;;;13.73;;
71777;SDS011;59609;52.430;4.668;2022-12-18T07:58:34;36.55;;;13.32;;
71777;SDS011;59609;52.430;4.668;2022-12-18T08:01:04;29.75;;;11.48;;
71777;SDS011;59609;52.430;4.668;2022-12-18T08:03:29;26.20;;;8.25;;
71777;SDS011;59609;52.430;4.668;2022-12-18T08:05:58;28.65;;;11.25;;
71777;SDS011;59609;52.430;4.668;2022-12-18T08:08:27;30.13;;;10.85;;
71777;SDS011;59609;52.430;4.668;2022-12-18T08:10:53;31.42;;;11.95;;
71777;SDS011;59609;52.430;4.668;2022-12-18T08:13:18;26.25;;;10.85;;
71777;SDS011;59609;52.430;4.668;2022-12-18T08:15:43;30.23;;;11.35;;
71777;SDS011;59609;52.430;4.668;2022-12-18T08:18:09;29.50;;;11.80;;
71777;SDS011;59609;52.430;4.668;2022-12-18T08:20:34;26.50;;;10.07;;
71777;SDS011;59609;52.430;4.668;2022-12-18T08:22:59;24.33;;;10.45;;
71777;SDS011;59609;52.430;4.668;2022-12-18T08:25:25;24.63;;;11.25;;
71777;SDS011;59609;52.430;4.668;2022-12-18T08:27:50;27.48;;;11.00;;
71777;SDS011;59609;52.430;4.668;2022-12-18T08:30:15;30.70;;;10.65;;
71777;SDS011;59609;52.430;4.668;2022-12-18T08:32:41;26.77;;;10.73;;
71777;SDS011;59609;52.430;4.668;2022-12-18T08:35:06;26.48;;;10.20;;
71777;SDS011;59609;52.430;4.668;2022-12-18T08:37:33;26.30;;;10.10;;
71777;SDS011;59609;52.430;4.668;2022-12-18T08:39:58;25.27;;;10.07;;
71777;SDS011;59609;52.430;4.668;2022-12-18T08:42:24;24.95;;;10.45;;
71777;SDS011;59609;52.430;4.668;2022-12-18T08:45:08;24.33;;;10.23;;
71777;SDS011;59609;52.430;4.668;2022-12-18T08:47:34;22.75;;;10.30;;
71777;SDS011;59609;52.430;4.668;2022-12-18T08:49:59;21.35;;;8.70;;
71777;SDS011;59609;52.430;4.668;2022-12-18T08:52:24;27.45;;;9.75;;
71777;SDS011;59609;52.430;4.668;2022-12-18T08:54:50;28.08;;;10.95;;
71777;SDS011;59609;52.430;4.668;2022-12-18T08:57:15;22.63;;;9.45;;
71777;SDS011;59609;52.430;4.668;2022-12-18T08:59:41;20.65;;;8.75;;
71777;SDS011;59609;52.430;4.668;2022-12-18T09:02:08;19.45;;;8.98;;
71777;SDS011;59609;52.430;4.668;2022-12-18T09:04:35;23.30;;;9.75;;
71777;SDS011;59609;52.430;4.668;2022-12-18T09:07:00;21.05;;;9.07;;
71777;SDS011;59609;52.430;4.668;2022-12-18T09:09:26;21.30;;;9.32;;
71777;SDS011;59609;52.430;4.668;2022-12-18T09:11:51;25.15;;;10.32;;
71777;SDS011;59609;52.430;4.668;2022-12-18T09:14:17;19.65;;;9.55;;
71777;SDS011;59609;52.430;4.668;2022-12-18T09:16:42;22.60;;;9.60;;
71777;SDS011;59609;52.430;4.668;2022-12-18T09:19:08;17.52;;;8.18;;
71777;SDS011;59609;52.430;4.668;2022-12-18T09:21:37;22.40;;;9.50;;
71777;SDS011;59609;52.430;4.668;2022-12-18T09:24:04;16.20;;;7.28;;
71777;SDS011;59609;52.430;4.668;2022-12-18T09:26:30;27.58;;;10.15;;
71777;SDS011;59609;52.430;4.668;2022-12-18T09:28:55;24.20;;;11.10;;
71777;SDS011;59609;52.430;4.668;2022-12-18T09:31:21;17.58;;;7.68;;
71777;SDS011;59609;52.430;4.668;2022-12-18T09:33:48;20.58;;;7.80;;
71777;SDS011;59609;52.430;4.668;2022-12-18T09:36:14;15.88;;;7.85;;
71777;SDS011;59609;52.430;4.668;2022-12-18T09:38:41;16.92;;;8.30;;
71777;SDS011;59609;52.430;4.668;2022-12-18T09:43:42;17.48;;;9.73;;
71777;SDS011;59609;52.430;4.668;2022-12-18T09:46:19;19.88;;;9.90;;
71777;SDS011;59609;52.430;4.668;2022-12-18T09:48:52;21.25;;;9.18;;
71777;SDS011;59609;52.430;4.668;2022-12-18T09:51:21;19.75;;;9.63;;
71777;SDS011;59609;52.430;4.668;2022-12-18T09:54:35;21.40;;;10.10;;
71777;SDS011;59609;52.430;4.668;2022-12-18T09:57:06;23.08;;;8.90;;
71777;SDS011;59609;52.430;4.668;2022-12-18T09:59:39;13.82;;;6.03;;
71777;SDS011;59609;52.430;4.668;2022-12-18T10:04:39;15.77;;;6.72;;
71777;SDS011;59609;52.430;4.668;2022-12-18T10:07:09;19.73;;;9.13;;
71777;SDS011;59609;52.430;4.668;2022-12-18T10:15:02;18.20;;;9.25;;
71777;SDS011;59609;52.430;4.668;2022-12-18T10:17:58;21.58;;;9.18;;
71777;SDS011;59609;52.430;4.668;2022-12-18T10:20:31;19.02;;;9.10;;
71777;SDS011;59609;52.430;4.668;2022-12-18T10:28:17;20.38;;;9.02;;
71777;SDS011;59609;52.430;4.668;2022-12-18T10:30:44;16.83;;;9.20;;
71777;SDS011;59609;52.430;4.668;2022-12-18T10:33:20;20.38;;;8.77;;
71777;SDS011;59609;52.430;4.668;2022-12-18T10:35:48;18.85;;;9.50;;
71777;SDS011;59609;52.430;4.668;2022-12-18T10:40:57;23.50;;;10.10;;
71777;SDS011;59609;52.430;4.668;2022-12-18T10:45:59;17.55;;;9.13;;
71777;SDS011;59609;52.430;4.668;2022-12-18T10:51:01;20.60;;;8.82;;
71777;SDS011;59609;52.430;4.668;2022-12-18T10:53:29;16.90;;;7.82;;
71777;SDS011;59609;52.430;4.668;2022-12-18T10:55:57;17.55;;;7.78;;
71777;SDS011;59609;52.430;4.668;2022-12-18T11:03:46;15.57;;;8.30;;
71777;SDS011;59609;52.430;4.668;2022-12-18T11:11:27;13.27;;;7.03;;
71777;SDS011;59609;52.430;4.668;2022-12-18T11:14:01;20.65;;;8.93;;
71777;SDS011;59609;52.430;4.668;2022-12-18T11:16:30;18.58;;;8.48;;
71777;SDS011;59609;52.430;4.668;2022-12-18T11:21:46;19.48;;;9.60;;
71777;SDS011;59609;52.430;4.668;2022-12-18T11:24:24;16.55;;;8.73;;
71777;SDS011;59609;52.430;4.668;2022-12-18T11:26:58;21.30;;;9.90;;
71777;SDS011;59609;52.430;4.668;2022-12-18T11:29:28;11.13;;;6.43;;
71777;SDS011;59609;52.430;4.668;2022-12-18T11:35:07;19.00;;;9.70;;
71777;SDS011;59609;52.430;4.668;2022-12-18T11:37:35;20.42;;;9.68;;
71777;SDS011;59609;52.430;4.668;2022-12-18T11:40:03;16.33;;;7.80;;
71777;SDS011;59609;52.430;4.668;2022-12-18T11:42:52;17.13;;;7.82;;
71777;SDS011;59609;52.430;4.668;2022-12-18T11:45:24;17.42;;;8.98;;
71777;SDS011;59609;52.430;4.668;2022-12-18T11:47:53;18.08;;;7.53;;
71777;SDS011;59609;52.430;4.668;2022-12-18T11:53:15;15.88;;;7.00;;
71777;SDS011;59609;52.430;4.668;2022-12-18T12:09:44;15.48;;;7.43;;
71777;SDS011;59609;52.430;4.668;2022-12-18T12:20:46;14.18;;;7.22;;
71777;SDS011;59609;52.430;4.668;2022-12-18T12:26:06;18.48;;;9.65;;
71777;SDS011;59609;52.430;4.668;2022-12-18T12:31:11;19.15;;;10.20;;
71777;SDS011;59609;52.430;4.668;2022-12-18T12:34:01;13.82;;;7.07;;
71777;SDS011;59609;52.430;4.668;2022-12-18T12:36:45;18.08;;;8.07;;
71777;SDS011;59609;52.430;4.668;2022-12-18T12:39:25;17.27;;;9.02;;
71777;SDS011;59609;52.430;4.668;2022-12-18T12:41:56;18.35;;;8.55;;
71777;SDS011;59609;52.430;4.668;2022-12-18T12:44:42;12.80;;;7.53;;
71777;SDS011;59609;52.430;4.668;2022-12-18T12:47:21;16.50;;;8.40;;
71777;SDS011;59609;52.430;4.668;2022-12-18T12:49:51;19.02;;;8.55;;
71777;SDS011;59609;52.430;4.668;2022-12-18T12:52:21;14.65;;;7.65;;
71777;SDS011;59609;52.430;4.668;2022-12-18T12:54:50;16.20;;;7.55;;
71777;SDS011;59609;52.430;4.668;2022-12-18T12:57:24;15.55;;;7.57;;
71777;SDS011;59609;52.430;4.668;2022-12-18T13:00:12;16.50;;;7.78;;
71777;SDS011;59609;52.430;4.668;2022-12-18T13:02:42;20.27;;;6.90;;
71777;SDS011;59609;52.430;4.668;2022-12-18T13:08:10;12.15;;;5.72;;
71777;SDS011;59609;52.430;4.668;2022-12-18T13:10:47;18.42;;;8.00;;
71777;SDS011;59609;52.430;4.668;2022-12-18T13:13:13;21.95;;;8.60;;
71777;SDS011;59609;52.430;4.668;2022-12-18T13:25:48;19.73;;;9.13;;
71777;SDS011;59609;52.430;4.668;2022-12-18T13:30:59;16.92;;;9.18;;
71777;SDS011;59609;52.430;4.668;2022-12-18T13:36:01;21.30;;;9.25;;
71777;SDS011;59609;52.430;4.668;2022-12-18T13:39:08;17.77;;;8.25;;
71777;SDS011;59609;52.430;4.668;2022-12-18T13:41:36;17.77;;;8.13;;
71777;SDS011;59609;52.430;4.668;2022-12-18T13:44:11;17.73;;;8.23;;
71777;SDS011;59609;52.430;4.668;2022-12-18T13:46:47;13.82;;;7.15;;
71777;SDS011;59609;52.430;4.668;2022-12-18T13:49:19;18.88;;;8.30;;
71777;SDS011;59609;52.430;4.668;2022-12-18T13:52:00;18.20;;;8.55;;
71777;SDS011;59609;52.430;4.668;2022-12-18T13:54:36;19.75;;;8.88;;
71777;SDS011;59609;52.430;4.668;2022-12-18T13:57:06;16.73;;;8.20;;
71777;SDS011;59609;52.430;4.668;2022-12-18T13:59:49;17.50;;;8.10;;
71777;SDS011;59609;52.430;4.668;2022-12-18T14:02:25;17.25;;;8.60;;
71777;SDS011;59609;52.430;4.668;2022-12-18T14:04:52;17.88;;;9.05;;
71777;SDS011;59609;52.430;4.668;2022-12-18T14:07:22;17.50;;;8.68;;
71777;SDS011;59609;52.430;4.668;2022-12-18T14:09:54;17.88;;;8.15;;
71777;SDS011;59609;52.430;4.668;2022-12-18T14:12:25;17.55;;;9.45;;
71777;SDS011;59609;52.430;4.668;2022-12-18T14:15:19;11.65;;;6.95;;
71777;SDS011;59609;52.430;4.668;2022-12-18T14:17:56;14.23;;;6.82;;
71777;SDS011;59609;52.430;4.668;2022-12-18T14:20:24;17.05;;;8.00;;
71777;SDS011;59609;52.430;4.668;2022-12-18T14:22:50;16.48;;;7.53;;
71777;SDS011;59609;52.430;4.668;2022-12-18T14:30:41;15.50;;;8.70;;
71777;SDS011;59609;52.430;4.668;2022-12-18T14:33:15;15.45;;;7.63;;
71777;SDS011;59609;52.430;4.668;2022-12-18T14:38:31;20.58;;;8.57;;
71777;SDS011;59609;52.430;4.668;2022-12-18T14:41:05;20.00;;;7.43;;
71777;SDS011;59609;52.430;4.668;2022-12-18T14:43:35;14.65;;;7.70;;
71777;SDS011;59609;52.430;4.668;2022-12-18T14:46:03;13.35;;;6.07;;
71777;SDS011;59609;52.430;4.668;2022-12-18T14:48:33;17.65;;;7.85;;
71777;SDS011;59609;52.430;4.668;2022-12-18T14:51:33;16.90;;;8.48;;
71777;SDS011;59609;52.430;4.668;2022-12-18T14:56:27;13.77;;;7.25;;
71777;SDS011;59609;52.430;4.668;2022-12-18T14:58:56;12.90;;;6.30;;
71777;SDS011;59609;52.430;4.668;2022-12-18T15:01:28;16.13;;;8.52;;
71777;SDS011;59609;52.430;4.668;2022-12-18T15:04:02;14.35;;;7.43;;
71777;SDS011;59609;52.430;4.668;2022-12-18T15:09:00;15.23;;;7.88;;
71777;SDS011;59609;52.430;4.668;2022-12-18T15:11:32;15.63;;;7.30;;
71777;SDS011;59609;52.430;4.668;2022-12-18T15:14:30;19.02;;;8.77;;
71777;SDS011;59609;52.430;4.668;2022-12-18T15:17:05;14.15;;;6.80;;
71777;SDS011;59609;52.430;4.668;2022-12-18T15:19:40;14.20;;;7.38;;
71777;SDS011;59609;52.430;4.668;2022-12-18T15:24:50;15.75;;;7.60;;
71777;SDS011;59609;52.430;4.668;2022-12-18T15:27:20;11.43;;;6.10;;
71777;SDS011;59609;52.430;4.668;2022-12-18T15:32:37;14.57;;;6.80;;
71777;SDS011;59609;52.430;4.668;2022-12-18T15:37:36;15.13;;;6.97;;
71777;SDS011;59609;52.430;4.668;2022-12-18T15:40:02;19.27;;;8.55;;
71777;SDS011;59609;52.430;4.668;2022-12-18T15:42:28;12.68;;;7.40;;
71777;SDS011;59609;52.430;4.668;2022-12-18T15:45:13;11.63;;;6.20;;
71777;SDS011;59609;52.430;4.668;2022-12-18T15:47:39;12.02;;;5.43;;
71777;SDS011;59609;52.430;4.668;2022-12-18T15:50:07;19.20;;;8.65;;
71777;SDS011;59609;52.430;4.668;2022-12-18T15:52:35;15.68;;;7.03;;
71777;SDS011;59609;52.430;4.668;2022-12-18T15:55:05;18.23;;;7.40;;
71777;SDS011;59609;52.430;4.668;2022-12-18T15:57:55;16.85;;;7.03;;
71777;SDS011;59609;52.430;4.668;2022-12-18T16:00:20;18.48;;;8.20;;
71777;SDS011;59609;52.430;4.668;2022-12-18T16:02:45;17.27;;;7.78;;
71777;SDS011;59609;52.430;4.668;2022-12-18T16:05:13;15.77;;;7.38;;
71777;SDS011;59609;52.430;4.668;2022-12-18T16:07:41;16.58;;;7.25;;
71777;SDS011;59609;52.430;4.668;2022-12-18T16:10:07;18.55;;;8.73;;
71777;SDS011;59609;52.430;4.668;2022-12-18T16:12:33;18.23;;;8.80;;
71777;SDS011;59609;52.430;4.668;2022-12-18T16:14:59;16.13;;;8.02;;
71777;SDS011;59609;52.430;4.668;2022-12-18T16:17:24;11.73;;;6.53;;
71777;SDS011;59609;52.430;4.668;2022-12-18T16:19:49;11.75;;;6.47;;
71777;SDS011;59609;52.430;4.668;2022-12-18T16:22:25;10.75;;;6.00;;
71777;SDS011;59609;52.430;4.668;2022-12-18T16:24:53;13.85;;;7.28;;
71777;SDS011;59609;52.430;4.668;2022-12-18T16:27:19;21.80;;;9.43;;
71777;SDS011;59609;52.430;4.668;2022-12-18T16:29:46;14.00;;;7.35;;
71777;SDS011;59609;52.430;4.668;2022-12-18T16:32:12;16.85;;;8.65;;
71777;SDS011;59609;52.430;4.668;2022-12-18T16:37:07;16.83;;;7.40;;
71777;SDS011;59609;52.430;4.668;2022-12-18T16:39:34;12.82;;;6.82;;
71777;SDS011;59609;52.430;4.668;2022-12-18T16:42:01;15.85;;;7.95;;
71777;SDS011;59609;52.430;4.668;2022-12-18T16:44:28;11.63;;;5.32;;
71777;SDS011;59609;52.430;4.668;2022-12-18T16:46:53;19.45;;;8.02;;
71777;SDS011;59609;52.430;4.668;2022-12-18T16:49:18;11.30;;;5.65;;
71777;SDS011;59609;52.430;4.668;2022-12-18T16:51:47;15.52;;;7.25;;
71777;SDS011;59609;52.430;4.668;2022-12-18T16:54:12;11.23;;;6.10;;
71777;SDS011;59609;52.430;4.668;2022-12-18T16:56:38;14.82;;;7.60;;
71777;SDS011;59609;52.430;4.668;2022-12-18T16:59:03;19.75;;;8.68;;
71777;SDS011;59609;52.430;4.668;2022-12-18T17:01:29;17.92;;;8.05;;
71777;SDS011;59609;52.430;4.668;2022-12-18T17:03:57;14.18;;;6.85;;